Terminal Aerodrome Forecast
Issued by NWS Wilmington, OH

Current Version | Previous Version | Graphics & Text | Print | Product List | Glossary On
Versions: 1 2 3 4 5 6 7 8 9 10 11 12 13 14 15 16 17 18 19 20 21
000
FTUS41 KILN 251700
TAFILN
TAF
KILN 251732Z 2518/2618 22022G30KT P6SM VCSH SCT040 BKN110
     FM252300 20009KT P6SM BKN080
     FM260800 19008KT P6SM BKN035
     FM261300 21012KT P6SM SCT035=

USA.gov is the U.S. government's official web portal to all federal, state and local government web resources and services.